Time;durP1;ratioP1;P1;durP2;ratioP2;P2;SDS_P1;SDS_P2;PMS_P1;PMS_P2;Temp;Humidity;BMP_temperature;BMP_pressure;BME280_temperature;BME280_humidity;BME280_pressure;Samples;Min_cycle;Max_cycle;Signal;HPM_P1;HPM_P2
2023/12/01 00:00:11;;;;;;;33.57;17.87;;;;;;;-144.73;100.00;54662.22;4952232;28;20023;-74
2023/12/01 00:02:36;;;;;;;32.23;16.83;;;;;;;-144.73;100.00;54654.00;4953516;28;20034;-74
2023/12/01 00:05:01;;;;;;;31.13;17.80;;;;;;;-144.73;100.00;54670.44;4969740;28;20156;-75
2023/12/01 00:07:27;;;;;;;33.67;18.53;;;;;;;-144.73;100.00;54670.44;4964270;28;20054;-74
2023/12/01 00:09:52;;;;;;;32.27;17.90;;;;;;;-144.73;100.00;54625.28;4990333;28;20118;-74
2023/12/01 00:12:18;;;;;;;33.03;16.47;;;;;;;-144.73;100.00;54588.31;4951241;28;20405;-74
2023/12/01 00:14:43;;;;;;;30.87;17.93;;;;;;;-144.73;100.00;54682.75;4954408;28;20046;-74
2023/12/01 00:17:08;;;;;;;39.17;20.27;;;;;;;-144.73;100.00;54649.91;4949968;28;20030;-74
2023/12/01 00:19:34;;;;;;;35.57;18.77;;;;;;;-144.73;100.00;54647.84;4942572;28;20040;-73
2023/12/01 00:21:59;;;;;;;36.33;19.90;;;;;;;-144.73;100.00;54629.38;4955039;28;20239;-76
2023/12/01 00:24:25;;;;;;;38.73;19.37;;;;;;;-144.73;100.00;54649.91;4950321;28;20398;-76
2023/12/01 00:26:50;;;;;;;32.67;18.40;;;;;;;-144.73;100.00;54654.00;4990837;28;20027;-75
2023/12/01 00:29:18;;;;;;;33.90;19.37;;;;;;;-144.73;100.00;54658.13;4965564;28;20041;-74
2023/12/01 00:31:44;;;;;;;36.93;20.10;;;;;;;-144.73;100.00;54674.53;4968826;28;20027;-75
2023/12/01 00:34:10;;;;;;;36.13;19.93;;;;;;;-144.73;100.00;54621.16;4959404;28;20050;-75
2023/12/01 00:36:36;;;;;;;35.67;17.07;;;;;;;-144.73;100.00;54670.44;4936997;29;20016;-74
2023/12/01 00:39:02;;;;;;;35.53;18.43;;;;;;;-144.73;100.00;54654.00;4941048;28;20032;-74
2023/12/01 00:41:27;;;;;;;41.23;21.97;;;;;;;-144.73;100.00;54635.53;4980614;28;20422;-74
2023/12/01 00:43:55;;;;;;;48.30;23.37;;;;;;;-144.73;100.00;54682.75;4954716;28;20487;-74
2023/12/01 00:46:21;;;;;;;39.80;21.07;;;;;;;-144.73;100.00;54645.78;4953975;28;20015;-75
2023/12/01 00:48:46;;;;;;;43.20;20.83;;;;;;;-144.73;100.00;54674.53;4950054;28;20487;-75
2023/12/01 00:51:16;;;;;;;34.40;18.63;;;;;;;-144.73;100.00;54641.69;4960789;28;20110;-75
2023/12/01 00:53:42;;;;;;;34.77;19.70;;;;;;;-144.73;100.00;54670.44;4953090;28;20031;-75
2023/12/01 00:56:10;;;;;;;38.00;20.03;;;;;;;-144.73;100.00;54621.16;4950222;28;20035;-75
2023/12/01 00:58:35;;;;;;;36.23;18.63;;;;;;;-144.73;100.00;54674.53;4951926;28;20035;-75
2023/12/01 01:01:00;;;;;;;36.30;18.93;;;;;;;-144.73;100.00;54651.97;4956214;28;20042;-75
2023/12/01 01:03:26;;;;;;;37.17;20.40;;;;;;;-144.73;100.00;54674.53;4953213;28;20711;-75
2023/12/01 01:05:51;;;;;;;40.43;20.43;;;;;;;-144.73;100.00;54658.13;4955968;28;20019;-75
2023/12/01 01:08:17;;;;;;;38.70;21.83;;;;;;;-144.73;100.00;54662.22;4961180;28;20035;-75
2023/12/01 01:10:43;;;;;;;39.97;20.40;;;;;;;-144.73;100.00;54641.69;4966865;28;20027;-75
2023/12/01 01:13:08;;;;;;;43.83;21.53;;;;;;;-144.73;100.00;54662.22;4965370;28;20030;-75
2023/12/01 01:15:33;;;;;;;41.27;20.80;;;;;;;-144.73;100.00;54645.78;4967799;28;20044;-75
2023/12/01 01:17:59;;;;;;;42.53;22.10;;;;;;;-144.73;100.00;54682.75;4959330;28;20047;-75
2023/12/01 01:20:24;;;;;;;48.13;21.83;;;;;;;-144.73;100.00;54617.06;4953687;28;20019;-75
2023/12/01 01:22:50;;;;;;;35.60;20.47;;;;;;;-144.73;100.00;54637.59;4959432;28;20046;-75
2023/12/01 01:25:15;;;;;;;42.63;22.23;;;;;;;-144.73;100.00;54641.69;4983122;28;20060;-75
2023/12/01 01:27:44;;;;;;;44.87;22.87;;;;;;;-144.73;100.00;54627.31;4970668;28;20022;-74
2023/12/01 01:30:09;;;;;;;47.10;23.00;;;;;;;-144.73;100.00;54654.00;4971047;28;20031;-75
2023/12/01 01:32:35;;;;;;;43.03;23.17;;;;;;;-144.73;100.00;54660.16;4966923;28;20037;-74
2023/12/01 01:35:00;;;;;;;49.53;23.33;;;;;;;-144.73;100.00;54674.53;4972405;28;20030;-75
2023/12/01 01:37:25;;;;;;;47.80;24.17;;;;;;;-144.73;100.00;54637.59;4952999;28;20506;-75
2023/12/01 01:39:51;;;;;;;45.87;22.83;;;;;;;-144.73;100.00;54621.16;4984971;28;20027;-75
2023/12/01 01:42:16;;;;;;;43.20;22.00;;;;;;;-144.73;100.00;54635.53;4957448;28;20030;-75
2023/12/01 01:44:42;;;;;;;42.40;21.83;;;;;;;-144.73;100.00;54610.91;4955415;28;20027;-75
2023/12/01 01:47:07;;;;;;;43.03;22.07;;;;;;;-144.73;100.00;54641.69;4963683;28;20078;-75
2023/12/01 01:49:33;;;;;;;53.47;25.37;;;;;;;-144.73;100.00;54625.28;4953504;28;20454;-75
2023/12/01 01:51:58;;;;;;;46.10;24.77;;;;;;;-144.73;100.00;54621.16;4960630;28;20058;-75
2023/12/01 01:54:25;;;;;;;47.13;22.50;;;;;;;-144.73;100.00;54654.00;4956462;28;20047;-75
2023/12/01 01:56:55;;;;;;;49.17;25.50;;;;;;;-144.73;100.00;54641.69;4965065;28;20494;-75
2023/12/01 01:59:21;;;;;;;47.00;23.17;;;;;;;-144.73;100.00;54662.22;4964547;28;20057;-75
2023/12/01 02:01:51;;;;;;;47.93;22.53;;;;;;;-144.73;100.00;54608.84;4960324;28;20482;-74
2023/12/01 02:04:17;;;;;;;47.10;23.63;;;;;;;-144.73;100.00;54637.59;4962827;28;20031;-74
2023/12/01 02:06:46;;;;;;;48.83;23.90;;;;;;;-144.73;100.00;54645.78;4960228;28;20043;-74
2023/12/01 02:09:15;;;;;;;53.73;26.20;;;;;;;-144.73;100.00;54674.53;4956830;28;20034;-74
2023/12/01 02:11:42;;;;;;;68.77;29.00;;;;;;;-144.73;100.00;54713.53;4954847;28;20023;-75
2023/12/01 02:14:07;;;;;;;54.70;26.77;;;;;;;-144.73;100.00;54658.13;4954337;28;20028;-75
2023/12/01 02:16:33;;;;;;;55.67;26.53;;;;;;;-144.73;100.00;54625.28;4951992;28;20019;-75
2023/12/01 02:18:59;;;;;;;51.67;25.13;;;;;;;-144.73;100.00;54670.44;4952336;28;20034;-75
2023/12/01 02:21:25;;;;;;;49.20;24.10;;;;;;;-144.73;100.00;54662.22;4950717;28;20019;-75
2023/12/01 02:23:55;;;;;;;54.63;26.07;;;;;;;-144.73;100.00;54637.59;4957921;28;20036;-75
2023/12/01 02:26:22;;;;;;;55.27;25.50;;;;;;;-144.73;100.00;54621.16;4958837;28;20501;-75
2023/12/01 02:28:48;;;;;;;47.53;23.13;;;;;;;-144.73;100.00;54625.28;4956186;28;20071;-75
2023/12/01 02:31:13;;;;;;;51.03;24.20;;;;;;;-144.73;100.00;54629.38;4958488;28;20078;-75
2023/12/01 02:33:39;;;;;;;58.17;26.30;;;;;;;-144.73;100.00;54637.59;4964315;28;20565;-76
2023/12/01 02:36:06;;;;;;;53.27;25.67;;;;;;;-144.73;100.00;54625.28;4958383;28;20019;-75
2023/12/01 02:38:32;;;;;;;49.40;23.80;;;;;;;-144.73;100.00;54662.22;4971717;28;20130;-75
2023/12/01 02:40:58;;;;;;;55.50;26.30;;;;;;;-144.73;100.00;54629.38;4959798;28;20086;-75
2023/12/01 02:43:23;;;;;;;51.20;24.90;;;;;;;-144.73;100.00;54703.28;4957156;28;20131;-75
2023/12/01 02:45:49;;;;;;;51.47;24.67;;;;;;;-144.73;100.00;54625.28;4965111;28;20508;-75
2023/12/01 02:48:16;;;;;;;45.23;22.93;;;;;;;-144.73;100.00;54670.44;4959955;28;20054;-75
2023/12/01 02:50:42;;;;;;;53.30;25.90;;;;;;;-144.73;100.00;54670.44;4959283;28;20114;-75
2023/12/01 02:53:07;;;;;;;55.57;25.77;;;;;;;-144.73;100.00;54658.13;4956281;28;20055;-75
2023/12/01 02:55:35;;;;;;;55.43;26.37;;;;;;;-144.73;100.00;54637.59;4951150;28;20016;-75
2023/12/01 02:58:01;;;;;;;60.30;27.97;;;;;;;-144.73;100.00;54600.63;4951631;28;20042;-75
2023/12/01 03:00:27;;;;;;;52.27;25.77;;;;;;;-144.73;100.00;54641.69;4964712;28;20022;-74
2023/12/01 03:02:52;;;;;;;49.47;24.47;;;;;;;-144.73;100.00;54672.47;4957340;28;20122;-75
2023/12/01 03:05:19;;;;;;;61.20;28.70;;;;;;;-144.73;100.00;54649.91;4950202;28;20024;-75
2023/12/01 03:07:46;;;;;;;61.80;26.43;;;;;;;-144.73;100.00;54637.59;4954147;28;20055;-75
2023/12/01 03:10:12;;;;;;;59.70;29.70;;;;;;;-144.73;100.00;54682.75;4959272;28;20043;-75
2023/12/01 03:12:39;;;;;;;60.40;26.90;;;;;;;-144.73;100.00;54674.53;4946908;28;20020;-74
2023/12/01 03:15:06;;;;;;;53.00;24.60;;;;;;;-144.73;100.00;54647.84;4957930;28;20045;-75
2023/12/01 03:17:32;;;;;;;56.27;27.10;;;;;;;-144.73;100.00;54654.00;4953992;28;20027;-75
2023/12/01 03:19:58;;;;;;;63.20;28.97;;;;;;;-144.73;100.00;54649.91;4971379;28;20015;-75
2023/12/01 03:22:24;;;;;;;53.77;27.50;;;;;;;-144.73;100.00;54678.63;4966043;28;20066;-75
2023/12/01 03:24:50;;;;;;;56.83;27.47;;;;;;;-144.73;100.00;54656.06;4965146;28;20101;-75
2023/12/01 03:27:25;;;;;;;58.63;27.07;;;;;;;-144.73;100.00;54617.06;4955720;28;20021;-74
2023/12/01 03:29:52;;;;;;;67.60;30.30;;;;;;;-144.73;100.00;54639.63;4956705;28;20047;-75
2023/12/01 03:32:21;;;;;;;53.93;26.80;;;;;;;-144.73;100.00;54649.91;4958934;28;20037;-74
2023/12/01 03:34:46;;;;;;;61.20;29.00;;;;;;;-144.73;100.00;54631.44;4968370;28;20048;-74
2023/12/01 03:37:12;;;;;;;54.97;26.53;;;;;;;-144.73;100.00;54571.91;4953032;28;20023;-75
2023/12/01 03:39:38;;;;;;;59.43;28.13;;;;;;;-144.73;100.00;54670.44;4949134;28;20048;-74
2023/12/01 03:42:04;;;;;;;57.30;27.90;;;;;;;-144.73;100.00;54674.53;4958638;28;20550;-75
2023/12/01 03:44:29;;;;;;;60.43;29.60;;;;;;;-144.73;100.00;54612.97;4957257;28;20494;-75
2023/12/01 03:46:55;;;;;;;66.03;30.13;;;;;;;-144.73;100.00;54647.84;4957903;28;20062;-75
2023/12/01 03:49:21;;;;;;;54.57;27.63;;;;;;;-144.73;100.00;54654.00;4956665;28;20110;-75
2023/12/01 03:51:46;;;;;;;57.50;27.30;;;;;;;-144.73;100.00;54637.59;4955378;28;20034;-76
2023/12/01 03:54:12;;;;;;;63.80;26.83;;;;;;;-144.73;100.00;54625.28;4945704;28;20040;-74
2023/12/01 03:56:38;;;;;;;57.17;28.83;;;;;;;-144.73;100.00;54674.53;4957699;28;20027;-74
2023/12/01 03:59:09;;;;;;;54.20;26.60;;;;;;;-144.73;100.00;54670.44;4981897;28;20407;-75
2023/12/01 04:01:39;;;;;;;56.85;27.08;;;;;;;-144.73;100.00;54625.28;4967222;28;20035;-75
2023/12/01 04:04:05;;;;;;;57.43;28.90;;;;;;;-144.73;100.00;54662.22;4953017;28;20043;-75
2023/12/01 04:06:34;;;;;;;58.60;28.20;;;;;;;-144.73;100.00;54674.53;4953581;28;20019;-75
2023/12/01 04:09:09;;;;;;;59.07;28.67;;;;;;;-144.73;100.00;54641.69;4949535;28;20031;-75
2023/12/01 04:11:34;;;;;;;62.90;29.90;;;;;;;-144.73;100.00;54654.00;4945699;28;20102;-75
2023/12/01 04:14:00;;;;;;;72.30;32.37;;;;;;;-144.73;100.00;54645.78;4941874;28;20106;-75
2023/12/01 04:16:26;;;;;;;66.97;31.93;;;;;;;-144.73;100.00;54641.69;4944753;28;20046;-74
2023/12/01 04:18:54;;;;;;;66.30;29.60;;;;;;;-144.73;100.00;54713.53;4946828;28;20041;-75
2023/12/01 04:21:22;;;;;;;63.10;29.20;;;;;;;-144.73;100.00;54678.63;4955940;28;20049;-74
2023/12/01 04:23:48;;;;;;;60.37;28.47;;;;;;;-144.73;100.00;54641.69;4956851;28;20031;-75
2023/12/01 04:26:21;;;;;;;62.53;30.00;;;;;;;-144.73;100.00;54662.22;4958995;28;20018;-74
2023/12/01 04:28:47;;;;;;;64.60;30.93;;;;;;;-144.73;100.00;54682.75;4955999;28;20049;-75
2023/12/01 04:31:15;;;;;;;66.00;31.40;;;;;;;-144.73;100.00;54629.38;4956973;28;20023;-75
2023/12/01 04:33:40;;;;;;;63.13;30.57;;;;;;;-144.73;100.00;54662.22;4965035;28;20032;-75
2023/12/01 04:36:11;;;;;;;66.97;31.60;;;;;;;-144.73;100.00;54670.44;4964418;28;20023;-75
2023/12/01 04:38:37;;;;;;;54.70;26.83;;;;;;;-144.73;100.00;54697.13;4956001;28;20082;-75
2023/12/01 04:41:02;;;;;;;59.47;29.50;;;;;;;-144.73;100.00;54637.59;4984724;28;20023;-75
2023/12/01 04:43:28;;;;;;;70.80;31.07;;;;;;;-144.73;100.00;54641.69;4962862;28;20057;-74
2023/12/01 04:45:53;;;;;;;58.37;28.20;;;;;;;-144.73;100.00;54670.44;4960691;28;20038;-74
2023/12/01 04:48:20;;;;;;;60.17;28.17;;;;;;;-144.73;100.00;54594.47;4957708;28;20028;-74
2023/12/01 04:50:47;;;;;;;64.67;29.80;;;;;;;-144.73;100.00;54654.00;4953430;28;20487;-73
2023/12/01 04:53:13;;;;;;;55.17;25.67;;;;;;;-144.73;100.00;54674.53;4964474;28;20030;-74
2023/12/01 04:55:39;;;;;;;56.13;25.83;;;;;;;-144.73;100.00;54612.97;4956962;29;20023;-74
2023/12/01 04:58:05;;;;;;;56.97;29.10;;;;;;;-144.73;100.00;54596.53;4964443;28;20609;-74
2023/12/01 05:00:30;;;;;;;58.37;27.00;;;;;;;-144.73;100.00;54629.38;4957354;29;20029;-74
2023/12/01 05:02:56;;;;;;;53.67;26.63;;;;;;;-144.73;100.00;54641.69;4956745;28;20435;-73
2023/12/01 05:05:23;;;;;;;58.67;27.40;;;;;;;-144.73;100.00;54629.38;4957012;29;20031;-74
2023/12/01 05:07:51;;;;;;;59.80;27.77;;;;;;;-144.73;100.00;54662.22;4956604;28;20033;-74
2023/12/01 05:10:18;;;;;;;67.90;30.43;;;;;;;-144.73;100.00;54608.84;4956929;29;20058;-73
2023/12/01 05:12:44;;;;;;;61.40;30.33;;;;;;;-144.73;100.00;54645.78;4950767;28;20139;-73
2023/12/01 05:15:15;;;;;;;62.57;29.03;;;;;;;-144.73;100.00;54625.28;4959585;28;20051;-74
2023/12/01 05:17:47;;;;;;;64.70;28.13;;;;;;;-144.73;100.00;54670.44;4956283;28;20034;-73
2023/12/01 05:20:17;;;;;;;57.47;27.20;;;;;;;-144.73;100.00;54639.63;4956631;29;20023;-74
2023/12/01 05:22:53;;;;;;;66.17;31.23;;;;;;;-144.73;100.00;54684.78;4955997;28;20066;-73
2023/12/01 05:25:20;;;;;;;60.10;28.67;;;;;;;-144.73;100.00;54588.31;4943541;29;20024;-74
2023/12/01 05:27:49;;;;;;;69.83;31.37;;;;;;;-144.73;100.00;54604.75;4936627;28;20123;-73
2023/12/01 05:30:17;;;;;;;77.13;35.10;;;;;;;-144.73;100.00;54608.84;4937090;29;20090;-75
2023/12/01 05:32:44;;;;;;;66.57;31.13;;;;;;;-144.73;100.00;54631.44;4937978;28;20090;-73
2023/12/01 05:35:10;;;;;;;77.67;35.80;;;;;;;-144.73;100.00;54662.22;4975667;28;20033;-73
2023/12/01 05:37:40;;;;;;;69.87;33.40;;;;;;;-144.73;100.00;54658.13;4975010;28;20085;-74
2023/12/01 05:40:08;;;;;;;75.30;31.47;;;;;;;-144.73;100.00;54674.53;4942422;28;20027;-74
2023/12/01 05:42:34;;;;;;;73.93;33.50;;;;;;;-144.73;100.00;54643.75;4960647;28;20035;-73
2023/12/01 05:44:59;;;;;;;69.00;31.37;;;;;;;-144.73;100.00;54608.84;4937291;29;20028;-73
2023/12/01 05:47:25;;;;;;;69.77;31.87;;;;;;;-144.73;100.00;54654.00;4977190;28;20114;-74
2023/12/01 05:49:50;;;;;;;71.23;33.17;;;;;;;-144.73;100.00;54608.84;4977919;28;20061;-74
2023/12/01 05:52:15;;;;;;;80.17;36.67;;;;;;;-144.73;100.00;54654.00;4943874;28;20107;-73
2023/12/01 05:54:42;;;;;;;80.67;34.13;;;;;;;-144.73;100.00;54617.06;4970250;28;20508;-73
2023/12/01 05:57:07;;;;;;;77.10;32.33;;;;;;;-144.73;100.00;54697.13;4969253;28;20073;-73
2023/12/01 05:59:33;;;;;;;75.57;34.23;;;;;;;-144.73;100.00;54658.13;4958786;28;20529;-74
2023/12/01 06:01:59;;;;;;;79.67;35.33;;;;;;;-144.73;100.00;54637.59;4956828;28;20058;-73
2023/12/01 06:04:25;;;;;;;84.50;35.50;;;;;;;-144.73;100.00;54662.22;4959806;28;20034;-73
2023/12/01 06:06:51;;;;;;;77.30;33.97;;;;;;;-144.73;100.00;54629.38;4974284;28;20033;-73
2023/12/01 06:09:17;;;;;;;77.00;33.90;;;;;;;-144.73;100.00;54625.28;4956055;28;20039;-74
2023/12/01 06:11:43;;;;;;;83.17;35.93;;;;;;;-144.73;100.00;54670.44;4974628;28;20027;-74
2023/12/01 06:14:08;;;;;;;79.03;33.83;;;;;;;-144.73;100.00;54637.59;4978759;28;20039;-74
2023/12/01 06:16:34;;;;;;;70.13;31.27;;;;;;;-144.73;100.00;54637.59;4964448;28;20027;-73
2023/12/01 06:19:00;;;;;;;73.47;31.30;;;;;;;-144.73;100.00;54678.63;4974114;28;20089;-73
2023/12/01 06:21:26;;;;;;;78.43;31.50;;;;;;;-144.73;100.00;54670.44;4956430;28;20050;-74
2023/12/01 06:23:51;;;;;;;77.57;33.43;;;;;;;-144.73;100.00;54678.63;4960199;28;20066;-74
2023/12/01 06:26:17;;;;;;;76.70;33.53;;;;;;;-144.73;100.00;54592.44;4955380;28;20035;-74
2023/12/01 06:28:43;;;;;;;84.63;35.60;;;;;;;-144.73;100.00;54637.59;4958058;28;20374;-74
2023/12/01 06:31:10;;;;;;;78.73;35.07;;;;;;;-144.73;100.00;54633.47;4968984;28;20031;-74
2023/12/01 06:33:35;;;;;;;85.57;35.07;;;;;;;-144.73;100.00;54637.59;4968412;28;20078;-73
2023/12/01 06:36:03;;;;;;;82.63;36.30;;;;;;;-144.73;100.00;54662.22;4977411;28;20031;-73
2023/12/01 06:38:32;;;;;;;92.97;33.60;;;;;;;-144.73;100.00;54715.59;4962205;28;20042;-74
2023/12/01 06:41:03;;;;;;;84.83;34.53;;;;;;;-144.73;100.00;54637.59;4958488;28;20035;-75
2023/12/01 06:43:32;;;;;;;84.93;34.10;;;;;;;-144.73;100.00;54658.13;4962582;28;20031;-75
2023/12/01 06:45:57;;;;;;;83.33;34.03;;;;;;;-144.73;100.00;54645.78;4956098;28;20031;-73
2023/12/01 06:48:25;;;;;;;83.20;34.23;;;;;;;-144.73;100.00;54670.44;4962200;28;20027;-74
2023/12/01 06:50:51;;;;;;;80.47;32.50;;;;;;;-144.73;100.00;54654.00;4962231;28;20026;-73
2023/12/01 06:53:16;;;;;;;76.30;32.13;;;;;;;-144.73;100.00;54641.69;4962257;28;20115;-74
2023/12/01 06:55:44;;;;;;;74.80;32.30;;;;;;;-144.73;100.00;54608.84;4955557;28;20031;-73
2023/12/01 06:58:13;;;;;;;69.90;28.52;;;;;;;-144.73;100.00;54623.22;4958263;28;20072;-73
2023/12/01 07:00:39;;;;;;;67.70;29.77;;;;;;;-144.73;100.00;54658.13;4972645;28;20023;-73
2023/12/01 07:03:07;;;;;;;80.53;32.23;;;;;;;-144.73;100.00;54637.59;4961486;28;20122;-73
2023/12/01 07:05:35;;;;;;;75.43;31.27;;;;;;;-144.73;100.00;54654.00;4959422;28;20031;-73
2023/12/01 07:08:01;;;;;;;72.80;30.50;;;;;;;-144.73;100.00;54612.97;4954482;28;20047;-73
2023/12/01 07:10:27;;;;;;;69.00;29.97;;;;;;;-144.73;100.00;54662.22;4960684;28;20490;-73
2023/12/01 07:12:54;;;;;;;80.93;32.90;;;;;;;-144.73;100.00;54660.16;4958114;28;20117;-73
2023/12/01 07:15:20;;;;;;;74.63;33.03;;;;;;;-144.73;100.00;54643.75;4956185;28;20098;-73
2023/12/01 07:17:50;;;;;;;73.63;29.90;;;;;;;-144.73;100.00;54682.75;4964088;28;20027;-73
2023/12/01 07:20:18;;;;;;;75.33;30.30;;;;;;;-144.73;100.00;54654.00;4961461;28;20026;-73
2023/12/01 07:22:45;;;;;;;77.37;30.57;;;;;;;-144.73;100.00;54637.59;4952995;28;20031;-73
2023/12/01 07:25:21;;;;;;;88.70;33.90;;;;;;;-144.73;100.00;54658.13;4946747;28;20405;-73
2023/12/01 07:27:51;;;;;;;78.40;29.87;;;;;;;-144.73;100.00;54637.59;4965750;28;20031;-73
2023/12/01 07:30:17;;;;;;;66.87;27.37;;;;;;;-144.73;100.00;54637.59;4947547;28;20545;-73
2023/12/01 07:32:47;;;;;;;78.73;32.87;;;;;;;-144.73;100.00;54699.16;4947599;28;20055;-73
2023/12/01 07:35:13;;;;;;;87.17;35.27;;;;;;;-144.73;100.00;54631.44;4954919;28;20029;-73
2023/12/01 07:37:42;;;;;;;89.80;35.73;;;;;;;-144.73;100.00;54654.00;4966490;28;20080;-73
2023/12/01 07:40:12;;;;;;;87.57;32.73;;;;;;;-144.73;100.00;54658.13;4955243;28;20497;-73
2023/12/01 07:42:39;;;;;;;86.27;34.90;;;;;;;-144.73;100.00;54649.91;4985908;28;20086;-73
2023/12/01 07:45:06;;;;;;;88.63;34.80;;;;;;;-144.73;100.00;54658.13;4985546;28;20466;-70
2023/12/01 07:47:31;;;;;;;86.43;34.03;;;;;;;-144.73;100.00;54686.84;4952862;28;20030;-69
2023/12/01 07:49:59;;;;;;;79.13;32.53;;;;;;;-144.73;100.00;54641.69;4953048;28;20016;-69
2023/12/01 07:52:24;;;;;;;80.60;31.93;;;;;;;-144.73;100.00;54641.69;4953618;28;20074;-69
2023/12/01 07:54:50;;;;;;;80.50;33.80;;;;;;;-144.73;100.00;54674.53;4954021;28;20063;-69
2023/12/01 07:57:15;;;;;;;79.63;33.27;;;;;;;-144.73;100.00;54633.47;4953790;29;20070;-69
2023/12/01 07:59:41;;;;;;;84.20;33.10;;;;;;;-144.73;100.00;54670.44;4954125;28;20103;-68
2023/12/01 08:02:06;;;;;;;74.80;33.23;;;;;;;-144.73;100.00;54641.69;4985974;28;20031;-69
2023/12/01 08:04:32;;;;;;;79.07;31.70;;;;;;;-144.73;100.00;54654.00;4952997;28;20094;-70
2023/12/01 08:06:57;;;;;;;72.63;30.47;;;;;;;-144.73;100.00;54625.28;4953499;28;20031;-70
2023/12/01 08:09:23;;;;;;;72.70;30.47;;;;;;;-144.73;100.00;54610.91;4952236;28;20122;-70
2023/12/01 08:11:49;;;;;;;76.83;31.70;;;;;;;-144.73;100.00;54625.28;4954409;28;20027;-68
2023/12/01 08:14:14;;;;;;;72.30;28.90;;;;;;;-144.73;100.00;54660.16;4952582;28;20498;-68
2023/12/01 08:16:42;;;;;;;66.20;28.53;;;;;;;-144.73;100.00;54621.16;4952961;28;20490;-69
2023/12/01 08:19:09;;;;;;;81.83;32.30;;;;;;;-144.73;100.00;54664.28;4955537;28;20038;-68
2023/12/01 08:21:35;;;;;;;73.27;29.53;;;;;;;-144.73;100.00;54641.69;4957255;28;20023;-70
2023/12/01 08:24:04;;;;;;;74.87;32.30;;;;;;;-144.73;100.00;54682.75;4956317;28;20027;-69
2023/12/01 08:26:31;;;;;;;72.33;30.30;;;;;;;-144.73;100.00;54662.22;4957019;28;20118;-70
2023/12/01 08:28:57;;;;;;;77.10;30.70;;;;;;;-144.73;100.00;54649.91;4955325;28;20391;-69
2023/12/01 08:31:23;;;;;;;87.20;34.73;;;;;;;-144.73;100.00;54625.28;4956524;28;20034;-70
2023/12/01 08:33:48;;;;;;;89.90;33.40;;;;;;;-144.73;100.00;54629.38;4955818;28;20062;-69
2023/12/01 08:36:13;;;;;;;76.23;32.33;;;;;;;-144.73;100.00;54649.91;4955379;29;20019;-69
2023/12/01 08:38:42;;;;;;;89.10;34.33;;;;;;;-144.73;100.00;54651.97;4954820;28;20049;-70
2023/12/01 08:41:07;;;;;;;80.70;34.27;;;;;;;-144.73;100.00;54592.44;4955934;28;20015;-69
2023/12/01 08:43:33;;;;;;;73.83;32.43;;;;;;;-144.73;100.00;54651.97;4955710;28;20034;-70
2023/12/01 08:45:58;;;;;;;76.50;32.17;;;;;;;-144.73;100.00;54592.44;4957144;29;20034;-69
2023/12/01 08:48:23;;;;;;;86.80;35.03;;;;;;;-144.73;100.00;54641.69;4955275;28;20063;-69
2023/12/01 08:50:49;;;;;;;86.17;33.73;;;;;;;-144.73;100.00;54643.75;4955984;29;20073;-70
2023/12/01 08:53:14;;;;;;;76.20;30.73;;;;;;;-144.73;100.00;54615.00;4955367;28;20039;-69
2023/12/01 08:55:39;;;;;;;90.27;33.97;;;;;;;-144.73;100.00;54645.78;4955269;28;20070;-69
2023/12/01 08:58:05;;;;;;;76.97;32.43;;;;;;;-144.73;100.00;54656.06;4955522;28;20035;-69
2023/12/01 09:00:30;;;;;;;78.00;33.03;;;;;;;-144.73;100.00;54649.91;4956132;28;20027;-68
2023/12/01 09:02:57;;;;;;;77.47;32.27;;;;;;;-144.73;100.00;54608.84;4955124;28;20039;-68
2023/12/01 09:05:23;;;;;;;73.47;30.17;;;;;;;-144.73;100.00;54656.06;4955754;28;20031;-69
2023/12/01 09:07:48;;;;;;;73.80;32.33;;;;;;;-144.73;100.00;54649.91;4955598;28;20099;-70
2023/12/01 09:10:15;;;;;;;74.63;29.53;;;;;;;-144.73;100.00;54649.91;4955975;28;20155;-68
2023/12/01 09:12:41;;;;;;;75.13;30.97;;;;;;;-144.73;100.00;54686.84;4954949;28;20486;-68
2023/12/01 09:15:07;;;;;;;74.50;31.77;;;;;;;-144.73;100.00;54641.69;4954880;28;20050;-70
2023/12/01 09:17:32;;;;;;;73.07;31.07;;;;;;;-144.73;100.00;54621.16;4957232;28;20148;-69
2023/12/01 09:19:58;;;;;;;70.27;29.10;;;;;;;-144.73;100.00;54649.91;4957213;28;20046;-70
2023/12/01 09:22:23;;;;;;;60.63;26.73;;;;;;;-144.73;100.00;54670.44;4956568;28;20023;-69
2023/12/01 09:24:48;;;;;;;65.33;28.17;;;;;;;-144.73;100.00;54670.44;4955279;28;20028;-69
2023/12/01 09:27:14;;;;;;;71.70;30.73;;;;;;;-144.73;100.00;54641.69;4956206;29;20063;-69
2023/12/01 09:29:39;;;;;;;63.50;27.10;;;;;;;-144.73;100.00;54658.13;4954669;28;20149;-69
2023/12/01 09:32:05;;;;;;;67.47;30.50;;;;;;;-144.73;100.00;54662.22;4955607;28;20030;-69
2023/12/01 09:34:30;;;;;;;65.20;28.63;;;;;;;-144.73;100.00;54678.63;4955335;28;20091;-70
2023/12/01 09:36:56;;;;;;;65.60;28.43;;;;;;;-144.73;100.00;54658.13;4955980;28;20023;-70
2023/12/01 09:39:21;;;;;;;70.60;28.83;;;;;;;-144.73;100.00;54678.63;4955460;28;20042;-69
2023/12/01 09:41:48;;;;;;;70.33;29.53;;;;;;;-144.73;100.00;54658.13;4956734;28;20019;-69
2023/12/01 09:44:13;;;;;;;62.17;27.23;;;;;;;-144.73;100.00;54637.59;4955029;28;20035;-69
2023/12/01 09:46:39;;;;;;;65.33;29.03;;;;;;;-144.73;100.00;54670.44;4955964;28;20030;-69
2023/12/01 09:49:05;;;;;;;68.53;29.43;;;;;;;-144.73;100.00;54637.59;4956803;28;20031;-70
2023/12/01 09:51:36;;;;;;;73.23;30.67;;;;;;;-144.73;100.00;54660.16;4964370;28;20379;-69
2023/12/01 09:54:03;;;;;;;47.73;21.50;;;;;;;-144.73;100.00;54654.00;4956829;28;20035;-69
2023/12/01 09:56:29;;;;;;;58.30;25.70;;;;;;;-144.73;100.00;54608.84;4967804;28;20031;-70
2023/12/01 09:58:58;;;;;;;62.33;28.37;;;;;;;-144.73;100.00;54658.13;4958378;28;20038;-71
2023/12/01 10:01:24;;;;;;;59.30;28.47;;;;;;;-144.73;100.00;54678.63;4956239;28;20019;-69
2023/12/01 10:03:50;;;;;;;60.40;27.10;;;;;;;-144.73;100.00;54654.00;4991648;28;20042;-70
2023/12/01 10:06:16;;;;;;;58.00;27.67;;;;;;;-144.73;100.00;54633.47;4952543;28;20074;-68
2023/12/01 10:08:42;;;;;;;65.60;28.87;;;;;;;-144.73;100.00;54678.63;4952950;28;20027;-69
2023/12/01 10:11:23;;;;;;;60.93;26.07;;;;;;;-144.73;100.00;54645.78;4960670;28;20033;-69
2023/12/01 10:13:51;;;;;;;55.13;26.33;;;;;;;-144.73;100.00;54658.13;4953958;28;20043;-69
2023/12/01 10:16:17;;;;;;;54.90;25.80;;;;;;;-144.73;100.00;54678.63;4949227;28;20027;-70
2023/12/01 10:18:59;;;;;;;52.70;23.33;;;;;;;-144.73;100.00;54670.44;4957757;28;20134;-70
2023/12/01 10:21:41;;;;;;;58.97;27.43;;;;;;;-144.73;100.00;54658.13;4956740;28;20069;-70
2023/12/01 10:24:14;;;;;;;64.83;29.17;;;;;;;-144.73;100.00;54662.22;4940966;28;20038;-69
2023/12/01 10:26:39;;;;;;;52.83;24.43;;;;;;;-144.73;100.00;54633.47;4958579;28;20060;-69
2023/12/01 10:29:06;;;;;;;53.60;24.80;;;;;;;-144.73;100.00;54643.75;4959053;28;20150;-69
2023/12/01 10:31:31;;;;;;;54.27;23.57;;;;;;;-144.73;100.00;54649.91;4959972;28;20038;-70
2023/12/01 10:33:57;;;;;;;53.83;25.70;;;;;;;-144.73;100.00;54633.47;4955327;28;20039;-70
2023/12/01 10:36:22;;;;;;;55.77;27.23;;;;;;;-144.73;100.00;54625.28;4959760;28;20031;-70
2023/12/01 10:38:48;;;;;;;55.57;24.83;;;;;;;-144.73;100.00;54641.69;4960824;28;20042;-70
2023/12/01 10:41:16;;;;;;;48.70;24.30;;;;;;;-144.73;100.00;54670.44;4966286;28;20473;-70
2023/12/01 10:43:44;;;;;;;49.63;23.37;;;;;;;-144.73;100.00;54645.78;4965329;28;20110;-69
2023/12/01 10:46:12;;;;;;;51.63;24.00;;;;;;;-144.73;100.00;54656.06;4961813;28;20031;-70
2023/12/01 10:48:39;;;;;;;51.80;24.20;;;;;;;-144.73;100.00;54654.00;4959411;28;20027;-69
2023/12/01 10:51:05;;;;;;;51.93;24.10;;;;;;;-144.73;100.00;54633.47;4982961;28;20055;-70